sensor_id;sensor_type;location;lat;lon;timestamp;P1;durP1;ratioP1;P2;durP2;ratioP2
72891;SDS011;61032;50.782;6.818;2023-04-19T00:00:06;3.83;;;2.53;;
72891;SDS011;61032;50.782;6.818;2023-04-19T00:01:07;4.97;;;2.72;;
72891;SDS011;61032;50.782;6.818;2023-04-19T00:02:07;3.17;;;2.40;;
72891;SDS011;61032;50.782;6.818;2023-04-19T00:03:09;5.90;;;2.60;;
72891;SDS011;61032;50.782;6.818;2023-04-19T00:04:10;4.57;;;2.70;;
72891;SDS011;61032;50.782;6.818;2023-04-19T00:05:10;4.78;;;2.83;;
72891;SDS011;61032;50.782;6.818;2023-04-19T00:06:12;3.72;;;2.45;;
72891;SDS011;61032;50.782;6.818;2023-04-19T00:07:14;3.92;;;2.22;;
72891;SDS011;61032;50.782;6.818;2023-04-19T00:08:15;4.35;;;2.05;;
72891;SDS011;61032;50.782;6.818;2023-04-19T00:09:16;4.28;;;2.17;;
72891;SDS011;61032;50.782;6.818;2023-04-19T00:10:16;3.45;;;2.13;;
72891;SDS011;61032;50.782;6.818;2023-04-19T00:11:17;4.00;;;2.85;;
72891;SDS011;61032;50.782;6.818;2023-04-19T00:12:18;3.88;;;2.70;;
72891;SDS011;61032;50.782;6.818;2023-04-19T00:13:18;3.97;;;2.33;;
72891;SDS011;61032;50.782;6.818;2023-04-19T00:15:21;3.67;;;2.28;;
72891;SDS011;61032;50.782;6.818;2023-04-19T00:16:21;4.95;;;2.10;;
72891;SDS011;61032;50.782;6.818;2023-04-19T00:17:22;4.03;;;2.17;;
72891;SDS011;61032;50.782;6.818;2023-04-19T00:18:22;5.10;;;2.50;;
72891;SDS011;61032;50.782;6.818;2023-04-19T00:19:25;3.33;;;2.10;;
72891;SDS011;61032;50.782;6.818;2023-04-19T00:20:37;3.05;;;1.88;;
72891;SDS011;61032;50.782;6.818;2023-04-19T00:21:38;4.30;;;2.40;;
72891;SDS011;61032;50.782;6.818;2023-04-19T00:22:38;3.80;;;2.22;;
72891;SDS011;61032;50.782;6.818;2023-04-19T00:23:39;3.53;;;2.30;;
72891;SDS011;61032;50.782;6.818;2023-04-19T00:24:39;4.68;;;2.25;;
72891;SDS011;61032;50.782;6.818;2023-04-19T00:25:39;4.13;;;2.17;;
72891;SDS011;61032;50.782;6.818;2023-04-19T00:26:40;5.30;;;2.72;;
72891;SDS011;61032;50.782;6.818;2023-04-19T00:27:40;4.07;;;2.08;;
72891;SDS011;61032;50.782;6.818;2023-04-19T00:28:40;3.35;;;2.20;;
72891;SDS011;61032;50.782;6.818;2023-04-19T00:29:41;2.92;;;2.05;;
72891;SDS011;61032;50.782;6.818;2023-04-19T00:30:41;3.25;;;2.20;;
72891;SDS011;61032;50.782;6.818;2023-04-19T00:31:42;3.72;;;2.10;;
72891;SDS011;61032;50.782;6.818;2023-04-19T00:32:42;3.10;;;2.10;;
72891;SDS011;61032;50.782;6.818;2023-04-19T00:33:43;3.67;;;2.40;;
72891;SDS011;61032;50.782;6.818;2023-04-19T00:34:43;3.03;;;2.33;;
72891;SDS011;61032;50.782;6.818;2023-04-19T00:35:43;4.65;;;2.40;;
72891;SDS011;61032;50.782;6.818;2023-04-19T00:36:44;3.05;;;1.58;;
72891;SDS011;61032;50.782;6.818;2023-04-19T00:37:44;4.70;;;2.40;;
72891;SDS011;61032;50.782;6.818;2023-04-19T00:38:44;3.75;;;2.00;;
72891;SDS011;61032;50.782;6.818;2023-04-19T00:39:45;4.00;;;2.35;;
72891;SDS011;61032;50.782;6.818;2023-04-19T00:40:46;3.05;;;2.20;;
72891;SDS011;61032;50.782;6.818;2023-04-19T00:41:47;4.72;;;2.33;;
72891;SDS011;61032;50.782;6.818;2023-04-19T00:42:47;4.93;;;3.00;;
72891;SDS011;61032;50.782;6.818;2023-04-19T00:43:47;3.97;;;2.00;;
72891;SDS011;61032;50.782;6.818;2023-04-19T00:44:48;5.68;;;2.33;;
72891;SDS011;61032;50.782;6.818;2023-04-19T00:45:48;4.97;;;2.15;;
72891;SDS011;61032;50.782;6.818;2023-04-19T00:46:49;3.65;;;2.28;;
72891;SDS011;61032;50.782;6.818;2023-04-19T00:47:50;3.10;;;2.08;;
72891;SDS011;61032;50.782;6.818;2023-04-19T00:48:52;3.90;;;2.20;;
72891;SDS011;61032;50.782;6.818;2023-04-19T00:49:52;3.70;;;2.33;;
72891;SDS011;61032;50.782;6.818;2023-04-19T00:50:53;5.40;;;2.30;;
72891;SDS011;61032;50.782;6.818;2023-04-19T00:51:54;3.08;;;2.40;;
72891;SDS011;61032;50.782;6.818;2023-04-19T00:52:54;3.05;;;2.30;;
72891;SDS011;61032;50.782;6.818;2023-04-19T00:53:56;4.07;;;2.45;;
72891;SDS011;61032;50.782;6.818;2023-04-19T00:54:56;3.15;;;2.30;;
72891;SDS011;61032;50.782;6.818;2023-04-19T00:55:59;4.63;;;2.50;;
72891;SDS011;61032;50.782;6.818;2023-04-19T00:57:03;3.25;;;2.13;;
72891;SDS011;61032;50.782;6.818;2023-04-19T00:58:05;3.60;;;2.42;;
72891;SDS011;61032;50.782;6.818;2023-04-19T00:59:06;4.43;;;2.50;;
72891;SDS011;61032;50.782;6.818;2023-04-19T01:00:07;3.13;;;2.08;;
72891;SDS011;61032;50.782;6.818;2023-04-19T01:02:09;4.03;;;2.20;;
72891;SDS011;61032;50.782;6.818;2023-04-19T01:03:10;3.10;;;1.90;;
72891;SDS011;61032;50.782;6.818;2023-04-19T01:04:11;5.10;;;2.20;;
72891;SDS011;61032;50.782;6.818;2023-04-19T01:05:12;4.70;;;2.42;;
72891;SDS011;61032;50.782;6.818;2023-04-19T01:06:13;4.15;;;2.22;;
72891;SDS011;61032;50.782;6.818;2023-04-19T01:07:13;4.28;;;2.50;;
72891;SDS011;61032;50.782;6.818;2023-04-19T01:08:14;4.00;;;2.20;;
72891;SDS011;61032;50.782;6.818;2023-04-19T01:09:15;5.38;;;2.78;;
72891;SDS011;61032;50.782;6.818;2023-04-19T01:10:15;3.65;;;2.00;;
72891;SDS011;61032;50.782;6.818;2023-04-19T01:11:16;3.65;;;2.25;;
72891;SDS011;61032;50.782;6.818;2023-04-19T01:12:17;2.35;;;1.83;;
72891;SDS011;61032;50.782;6.818;2023-04-19T01:13:17;3.33;;;2.58;;
72891;SDS011;61032;50.782;6.818;2023-04-19T01:14:18;3.95;;;2.55;;
72891;SDS011;61032;50.782;6.818;2023-04-19T01:15:18;4.47;;;2.80;;
72891;SDS011;61032;50.782;6.818;2023-04-19T01:16:19;3.17;;;2.47;;
72891;SDS011;61032;50.782;6.818;2023-04-19T01:17:19;3.25;;;2.05;;
72891;SDS011;61032;50.782;6.818;2023-04-19T01:18:20;3.15;;;2.10;;
72891;SDS011;61032;50.782;6.818;2023-04-19T01:19:23;3.78;;;2.20;;
72891;SDS011;61032;50.782;6.818;2023-04-19T01:20:23;3.92;;;2.13;;
72891;SDS011;61032;50.782;6.818;2023-04-19T01:21:24;3.38;;;2.13;;
72891;SDS011;61032;50.782;6.818;2023-04-19T01:22:25;3.50;;;2.10;;
72891;SDS011;61032;50.782;6.818;2023-04-19T01:23:25;4.82;;;2.92;;
72891;SDS011;61032;50.782;6.818;2023-04-19T01:24:26;4.35;;;2.50;;
72891;SDS011;61032;50.782;6.818;2023-04-19T01:25:26;3.80;;;2.58;;
72891;SDS011;61032;50.782;6.818;2023-04-19T01:26:26;3.25;;;2.03;;
72891;SDS011;61032;50.782;6.818;2023-04-19T01:27:27;4.88;;;2.80;;
72891;SDS011;61032;50.782;6.818;2023-04-19T01:28:27;6.53;;;2.40;;
72891;SDS011;61032;50.782;6.818;2023-04-19T01:29:28;6.15;;;3.03;;
72891;SDS011;61032;50.782;6.818;2023-04-19T01:30:28;4.07;;;2.40;;
72891;SDS011;61032;50.782;6.818;2023-04-19T01:31:28;4.80;;;2.33;;
72891;SDS011;61032;50.782;6.818;2023-04-19T01:32:29;4.03;;;2.55;;
72891;SDS011;61032;50.782;6.818;2023-04-19T01:33:29;4.32;;;2.53;;
72891;SDS011;61032;50.782;6.818;2023-04-19T01:34:29;3.13;;;2.03;;
72891;SDS011;61032;50.782;6.818;2023-04-19T01:35:30;3.63;;;2.50;;
72891;SDS011;61032;50.782;6.818;2023-04-19T01:36:30;3.38;;;2.35;;
72891;SDS011;61032;50.782;6.818;2023-04-19T01:37:33;3.10;;;2.33;;
72891;SDS011;61032;50.782;6.818;2023-04-19T01:38:34;3.67;;;2.28;;
72891;SDS011;61032;50.782;6.818;2023-04-19T01:39:35;4.43;;;2.88;;
72891;SDS011;61032;50.782;6.818;2023-04-19T01:40:35;4.28;;;2.28;;
72891;SDS011;61032;50.782;6.818;2023-04-19T01:41:36;3.72;;;2.40;;
72891;SDS011;61032;50.782;6.818;2023-04-19T01:42:39;3.75;;;2.28;;
72891;SDS011;61032;50.782;6.818;2023-04-19T01:43:39;4.93;;;2.33;;
72891;SDS011;61032;50.782;6.818;2023-04-19T01:44:40;4.65;;;2.38;;
72891;SDS011;61032;50.782;6.818;2023-04-19T01:45:40;3.38;;;2.60;;
72891;SDS011;61032;50.782;6.818;2023-04-19T01:46:41;4.20;;;2.47;;
72891;SDS011;61032;50.782;6.818;2023-04-19T01:47:41;4.85;;;3.00;;
72891;SDS011;61032;50.782;6.818;2023-04-19T01:48:42;3.92;;;2.42;;
72891;SDS011;61032;50.782;6.818;2023-04-19T01:49:42;3.90;;;2.55;;
72891;SDS011;61032;50.782;6.818;2023-04-19T01:50:43;3.17;;;2.15;;
72891;SDS011;61032;50.782;6.818;2023-04-19T01:51:44;4.60;;;2.80;;
72891;SDS011;61032;50.782;6.818;2023-04-19T01:52:44;4.45;;;2.55;;
72891;SDS011;61032;50.782;6.818;2023-04-19T01:53:45;4.15;;;2.47;;
72891;SDS011;61032;50.782;6.818;2023-04-19T01:54:45;3.95;;;2.80;;
72891;SDS011;61032;50.782;6.818;2023-04-19T01:55:45;5.70;;;2.25;;
72891;SDS011;61032;50.782;6.818;2023-04-19T01:56:46;4.47;;;2.53;;
72891;SDS011;61032;50.782;6.818;2023-04-19T01:57:46;3.97;;;2.72;;
72891;SDS011;61032;50.782;6.818;2023-04-19T01:58:47;3.10;;;2.05;;
72891;SDS011;61032;50.782;6.818;2023-04-19T01:59:47;4.70;;;2.50;;
72891;SDS011;61032;50.782;6.818;2023-04-19T02:00:49;3.85;;;2.60;;
72891;SDS011;61032;50.782;6.818;2023-04-19T02:01:49;5.00;;;2.58;;
72891;SDS011;61032;50.782;6.818;2023-04-19T02:02:49;3.80;;;2.50;;
72891;SDS011;61032;50.782;6.818;2023-04-19T02:03:50;5.20;;;2.15;;
72891;SDS011;61032;50.782;6.818;2023-04-19T02:04:50;3.25;;;2.40;;
72891;SDS011;61032;50.782;6.818;2023-04-19T02:05:51;3.95;;;2.40;;
72891;SDS011;61032;50.782;6.818;2023-04-19T02:06:51;4.50;;;2.22;;
72891;SDS011;61032;50.782;6.818;2023-04-19T02:07:51;4.93;;;2.70;;
72891;SDS011;61032;50.782;6.818;2023-04-19T02:08:52;5.93;;;2.28;;
72891;SDS011;61032;50.782;6.818;2023-04-19T02:09:52;4.05;;;2.42;;
72891;SDS011;61032;50.782;6.818;2023-04-19T02:10:52;4.15;;;2.63;;
72891;SDS011;61032;50.782;6.818;2023-04-19T02:11:53;5.28;;;3.60;;
72891;SDS011;61032;50.782;6.818;2023-04-19T02:12:53;4.50;;;2.70;;
72891;SDS011;61032;50.782;6.818;2023-04-19T02:13:54;4.25;;;2.50;;
72891;SDS011;61032;50.782;6.818;2023-04-19T02:14:54;4.18;;;2.35;;
72891;SDS011;61032;50.782;6.818;2023-04-19T02:15:58;3.28;;;2.13;;
72891;SDS011;61032;50.782;6.818;2023-04-19T02:17:01;4.50;;;2.58;;
72891;SDS011;61032;50.782;6.818;2023-04-19T02:18:01;3.47;;;2.45;;
72891;SDS011;61032;50.782;6.818;2023-04-19T02:19:05;6.43;;;2.92;;
72891;SDS011;61032;50.782;6.818;2023-04-19T02:20:05;4.82;;;2.78;;
72891;SDS011;61032;50.782;6.818;2023-04-19T02:21:10;3.65;;;2.70;;
72891;SDS011;61032;50.782;6.818;2023-04-19T02:22:10;4.22;;;2.60;;
72891;SDS011;61032;50.782;6.818;2023-04-19T02:23:11;3.83;;;2.50;;
72891;SDS011;61032;50.782;6.818;2023-04-19T02:24:11;3.80;;;2.33;;
72891;SDS011;61032;50.782;6.818;2023-04-19T02:25:12;4.32;;;2.72;;
72891;SDS011;61032;50.782;6.818;2023-04-19T02:26:12;4.90;;;2.47;;
72891;SDS011;61032;50.782;6.818;2023-04-19T02:27:12;4.47;;;2.90;;
72891;SDS011;61032;50.782;6.818;2023-04-19T02:28:13;4.82;;;2.63;;
72891;SDS011;61032;50.782;6.818;2023-04-19T02:29:13;3.85;;;2.28;;
72891;SDS011;61032;50.782;6.818;2023-04-19T02:30:15;3.67;;;2.33;;
72891;SDS011;61032;50.782;6.818;2023-04-19T02:31:16;4.13;;;2.97;;
72891;SDS011;61032;50.782;6.818;2023-04-19T02:32:16;4.10;;;2.75;;
72891;SDS011;61032;50.782;6.818;2023-04-19T02:33:17;5.93;;;3.00;;
72891;SDS011;61032;50.782;6.818;2023-04-19T02:34:17;3.95;;;2.83;;
72891;SDS011;61032;50.782;6.818;2023-04-19T02:35:18;4.85;;;2.88;;
72891;SDS011;61032;50.782;6.818;2023-04-19T02:36:18;5.50;;;2.90;;
72891;SDS011;61032;50.782;6.818;2023-04-19T02:37:19;5.28;;;2.92;;
72891;SDS011;61032;50.782;6.818;2023-04-19T02:38:19;4.40;;;2.97;;
72891;SDS011;61032;50.782;6.818;2023-04-19T02:39:20;5.50;;;3.28;;
72891;SDS011;61032;50.782;6.818;2023-04-19T02:40:20;4.93;;;2.80;;
72891;SDS011;61032;50.782;6.818;2023-04-19T02:41:21;5.80;;;3.13;;
72891;SDS011;61032;50.782;6.818;2023-04-19T02:42:22;5.18;;;3.25;;
72891;SDS011;61032;50.782;6.818;2023-04-19T02:43:22;5.25;;;3.00;;
72891;SDS011;61032;50.782;6.818;2023-04-19T02:44:23;8.75;;;3.15;;
72891;SDS011;61032;50.782;6.818;2023-04-19T02:45:23;4.75;;;2.75;;
72891;SDS011;61032;50.782;6.818;2023-04-19T02:46:24;4.57;;;2.67;;
72891;SDS011;61032;50.782;6.818;2023-04-19T02:47:24;4.97;;;2.80;;
72891;SDS011;61032;50.782;6.818;2023-04-19T02:48:25;6.65;;;3.40;;
72891;SDS011;61032;50.782;6.818;2023-04-19T02:49:25;4.85;;;2.92;;
72891;SDS011;61032;50.782;6.818;2023-04-19T02:50:26;5.38;;;2.95;;
72891;SDS011;61032;50.782;6.818;2023-04-19T02:51:26;6.05;;;3.83;;
72891;SDS011;61032;50.782;6.818;2023-04-19T02:52:27;4.28;;;3.00;;
72891;SDS011;61032;50.782;6.818;2023-04-19T02:53:27;6.07;;;2.97;;
72891;SDS011;61032;50.782;6.818;2023-04-19T02:54:28;4.50;;;3.08;;
72891;SDS011;61032;50.782;6.818;2023-04-19T02:55:28;6.28;;;3.60;;
72891;SDS011;61032;50.782;6.818;2023-04-19T02:56:28;4.63;;;3.03;;
72891;SDS011;61032;50.782;6.818;2023-04-19T02:57:29;5.18;;;3.55;;
72891;SDS011;61032;50.782;6.818;2023-04-19T02:58:29;6.22;;;3.83;;
72891;SDS011;61032;50.782;6.818;2023-04-19T02:59:30;5.65;;;3.47;;
72891;SDS011;61032;50.782;6.818;2023-04-19T03:00:30;6.78;;;3.97;;
72891;SDS011;61032;50.782;6.818;2023-04-19T03:01:31;7.10;;;4.25;;
72891;SDS011;61032;50.782;6.818;2023-04-19T03:02:31;6.63;;;3.33;;
72891;SDS011;61032;50.782;6.818;2023-04-19T03:03:32;5.75;;;3.83;;
72891;SDS011;61032;50.782;6.818;2023-04-19T03:04:32;5.45;;;3.50;;
72891;SDS011;61032;50.782;6.818;2023-04-19T03:05:33;5.88;;;3.85;;
72891;SDS011;61032;50.782;6.818;2023-04-19T03:06:33;6.25;;;3.55;;
72891;SDS011;61032;50.782;6.818;2023-04-19T03:07:34;5.50;;;3.90;;
72891;SDS011;61032;50.782;6.818;2023-04-19T03:08:35;5.40;;;3.65;;
72891;SDS011;61032;50.782;6.818;2023-04-19T03:09:35;5.05;;;3.42;;
72891;SDS011;61032;50.782;6.818;2023-04-19T03:10:36;7.78;;;3.90;;
72891;SDS011;61032;50.782;6.818;2023-04-19T03:11:36;6.05;;;3.85;;
72891;SDS011;61032;50.782;6.818;2023-04-19T03:12:37;5.80;;;3.65;;
72891;SDS011;61032;50.782;6.818;2023-04-19T03:13:38;6.93;;;4.00;;
72891;SDS011;61032;50.782;6.818;2023-04-19T03:14:39;5.28;;;3.30;;
72891;SDS011;61032;50.782;6.818;2023-04-19T03:15:39;7.45;;;4.05;;
72891;SDS011;61032;50.782;6.818;2023-04-19T03:16:40;5.25;;;3.45;;
72891;SDS011;61032;50.782;6.818;2023-04-19T03:17:40;8.00;;;3.80;;
72891;SDS011;61032;50.782;6.818;2023-04-19T03:18:41;5.60;;;3.67;;
72891;SDS011;61032;50.782;6.818;2023-04-19T03:19:41;5.88;;;4.20;;
72891;SDS011;61032;50.782;6.818;2023-04-19T03:20:41;5.55;;;3.95;;
72891;SDS011;61032;50.782;6.818;2023-04-19T03:21:42;5.03;;;3.45;;
72891;SDS011;61032;50.782;6.818;2023-04-19T03:22:42;7.50;;;4.45;;
72891;SDS011;61032;50.782;6.818;2023-04-19T03:23:43;6.72;;;3.78;;
72891;SDS011;61032;50.782;6.818;2023-04-19T03:24:43;6.70;;;3.47;;
72891;SDS011;61032;50.782;6.818;2023-04-19T03:25:43;6.45;;;3.97;;
72891;SDS011;61032;50.782;6.818;2023-04-19T03:26:45;7.25;;;4.55;;
72891;SDS011;61032;50.782;6.818;2023-04-19T03:27:45;6.70;;;4.15;;
72891;SDS011;61032;50.782;6.818;2023-04-19T03:28:47;5.47;;;3.55;;
72891;SDS011;61032;50.782;6.818;2023-04-19T03:29:47;9.60;;;5.00;;
72891;SDS011;61032;50.782;6.818;2023-04-19T03:30:47;6.68;;;3.53;;
72891;SDS011;61032;50.782;6.818;2023-04-19T03:31:48;6.18;;;3.80;;
72891;SDS011;61032;50.782;6.818;2023-04-19T03:32:49;7.03;;;4.05;;
72891;SDS011;61032;50.782;6.818;2023-04-19T03:33:51;10.25;;;4.03;;
72891;SDS011;61032;50.782;6.818;2023-04-19T03:34:51;5.32;;;3.88;;
72891;SDS011;61032;50.782;6.818;2023-04-19T03:35:52;6.57;;;4.55;;
72891;SDS011;61032;50.782;6.818;2023-04-19T03:36:52;6.55;;;4.20;;
72891;SDS011;61032;50.782;6.818;2023-04-19T03:37:53;7.07;;;3.97;;
72891;SDS011;61032;50.782;6.818;2023-04-19T03:38:53;6.18;;;3.80;;
72891;SDS011;61032;50.782;6.818;2023-04-19T03:39:53;8.27;;;4.15;;
72891;SDS011;61032;50.782;6.818;2023-04-19T03:40:54;7.32;;;4.32;;
72891;SDS011;61032;50.782;6.818;2023-04-19T03:41:56;7.15;;;4.60;;
72891;SDS011;61032;50.782;6.818;2023-04-19T03:42:56;6.82;;;4.05;;
72891;SDS011;61032;50.782;6.818;2023-04-19T03:43:57;5.60;;;3.60;;
72891;SDS011;61032;50.782;6.818;2023-04-19T03:44:58;6.38;;;4.05;;
72891;SDS011;61032;50.782;6.818;2023-04-19T03:45:58;6.22;;;3.85;;
72891;SDS011;61032;50.782;6.818;2023-04-19T03:46:59;8.32;;;4.05;;
72891;SDS011;61032;50.782;6.818;2023-04-19T03:47:59;7.05;;;4.22;;
72891;SDS011;61032;50.782;6.818;2023-04-19T03:49:00;6.38;;;3.33;;
72891;SDS011;61032;50.782;6.818;2023-04-19T03:50:00;5.85;;;3.72;;
72891;SDS011;61032;50.782;6.818;2023-04-19T03:51:01;5.25;;;3.42;;
72891;SDS011;61032;50.782;6.818;2023-04-19T03:52:01;5.90;;;3.80;;
72891;SDS011;61032;50.782;6.818;2023-04-19T03:53:02;6.45;;;3.60;;
72891;SDS011;61032;50.782;6.818;2023-04-19T03:54:04;5.82;;;3.60;;
72891;SDS011;61032;50.782;6.818;2023-04-19T03:55:05;6.72;;;3.45;;
72891;SDS011;61032;50.782;6.818;2023-04-19T03:56:05;7.03;;;3.72;;
72891;SDS011;61032;50.782;6.818;2023-04-19T03:57:06;10.27;;;4.45;;
72891;SDS011;61032;50.782;6.818;2023-04-19T03:58:06;5.53;;;3.95;;
72891;SDS011;61032;50.782;6.818;2023-04-19T03:59:08;6.03;;;4.22;;
72891;SDS011;61032;50.782;6.818;2023-04-19T04:00:08;6.88;;;3.42;;
72891;SDS011;61032;50.782;6.818;2023-04-19T04:01:18;6.97;;;4.07;;
72891;SDS011;61032;50.782;6.818;2023-04-19T04:02:23;6.30;;;3.85;;
72891;SDS011;61032;50.782;6.818;2023-04-19T04:03:23;7.00;;;4.07;;
72891;SDS011;61032;50.782;6.818;2023-04-19T04:04:24;5.40;;;3.80;;
72891;SDS011;61032;50.782;6.818;2023-04-19T04:05:27;7.25;;;4.22;;
72891;SDS011;61032;50.782;6.818;2023-04-19T04:06:27;8.02;;;4.25;;
72891;SDS011;61032;50.782;6.818;2023-04-19T04:07:28;7.25;;;3.80;;
72891;SDS011;61032;50.782;6.818;2023-04-19T04:08:28;6.57;;;3.72;;
72891;SDS011;61032;50.782;6.818;2023-04-19T04:09:29;6.15;;;3.83;;
72891;SDS011;61032;50.782;6.818;2023-04-19T04:10:30;7.55;;;4.32;;
72891;SDS011;61032;50.782;6.818;2023-04-19T04:11:30;6.47;;;4.40;;
72891;SDS011;61032;50.782;6.818;2023-04-19T04:12:31;6.75;;;4.32;;
72891;SDS011;61032;50.782;6.818;2023-04-19T04:13:31;6.88;;;4.03;;
72891;SDS011;61032;50.782;6.818;2023-04-19T04:14:32;6.80;;;4.45;;
72891;SDS011;61032;50.782;6.818;2023-04-19T04:15:32;6.80;;;4.00;;
72891;SDS011;61032;50.782;6.818;2023-04-19T04:16:32;7.88;;;4.40;;
72891;SDS011;61032;50.782;6.818;2023-04-19T04:17:33;8.95;;;4.43;;
72891;SDS011;61032;50.782;6.818;2023-04-19T04:18:33;7.28;;;4.47;;
72891;SDS011;61032;50.782;6.818;2023-04-19T04:19:34;7.15;;;4.28;;
72891;SDS011;61032;50.782;6.818;2023-04-19T04:20:34;7.00;;;4.75;;
72891;SDS011;61032;50.782;6.818;2023-04-19T04:21:35;8.48;;;4.68;;
72891;SDS011;61032;50.782;6.818;2023-04-19T04:22:38;6.82;;;4.05;;
72891;SDS011;61032;50.782;6.818;2023-04-19T04:23:42;7.72;;;5.05;;
72891;SDS011;61032;50.782;6.818;2023-04-19T04:24:43;7.28;;;4.65;;
72891;SDS011;61032;50.782;6.818;2023-04-19T04:25:44;7.43;;;5.00;;
72891;SDS011;61032;50.782;6.818;2023-04-19T04:26:45;6.90;;;4.60;;
72891;SDS011;61032;50.782;6.818;2023-04-19T04:27:45;8.00;;;4.75;;
72891;SDS011;61032;50.782;6.818;2023-04-19T04:28:46;8.52;;;4.78;;
72891;SDS011;61032;50.782;6.818;2023-04-19T04:29:47;8.32;;;5.10;;
72891;SDS011;61032;50.782;6.818;2023-04-19T04:30:48;7.85;;;5.22;;
72891;SDS011;61032;50.782;6.818;2023-04-19T04:31:50;9.80;;;4.95;;
72891;SDS011;61032;50.782;6.818;2023-04-19T04:32:51;8.40;;;5.13;;
72891;SDS011;61032;50.782;6.818;2023-04-19T04:33:51;6.70;;;4.45;;
72891;SDS011;61032;50.782;6.818;2023-04-19T04:34:54;9.27;;;5.30;;
72891;SDS011;61032;50.782;6.818;2023-04-19T04:35:54;9.75;;;5.80;;
72891;SDS011;61032;50.782;6.818;2023-04-19T04:36:56;7.93;;;5.28;;
72891;SDS011;61032;50.782;6.818;2023-04-19T04:37:57;8.25;;;5.38;;
72891;SDS011;61032;50.782;6.818;2023-04-19T04:38:58;7.93;;;5.40;;
72891;SDS011;61032;50.782;6.818;2023-04-19T04:41:03;9.25;;;5.35;;
72891;SDS011;61032;50.782;6.818;2023-04-19T04:42:05;8.82;;;5.05;;
72891;SDS011;61032;50.782;6.818;2023-04-19T04:43:08;8.45;;;5.07;;
72891;SDS011;61032;50.782;6.818;2023-04-19T04:44:10;9.80;;;5.93;;
72891;SDS011;61032;50.782;6.818;2023-04-19T04:45:11;9.55;;;5.25;;
72891;SDS011;61032;50.782;6.818;2023-04-19T04:46:11;7.75;;;4.95;;
72891;SDS011;61032;50.782;6.818;2023-04-19T04:47:12;10.40;;;5.43;;
72891;SDS011;61032;50.782;6.818;2023-04-19T04:48:13;7.35;;;4.72;;
72891;SDS011;61032;50.782;6.818;2023-04-19T04:49:13;9.85;;;5.07;;
72891;SDS011;61032;50.782;6.818;2023-04-19T04:50:17;8.95;;;5.35;;
72891;SDS011;61032;50.782;6.818;2023-04-19T04:51:17;7.78;;;4.93;;
72891;SDS011;61032;50.782;6.818;2023-04-19T04:52:18;13.23;;;5.97;;
72891;SDS011;61032;50.782;6.818;2023-04-19T04:53:18;10.20;;;5.43;;
72891;SDS011;61032;50.782;6.818;2023-04-19T04:54:19;7.65;;;5.78;;
72891;SDS011;61032;50.782;6.818;2023-04-19T04:55:20;6.63;;;4.60;;
72891;SDS011;61032;50.782;6.818;2023-04-19T04:56:20;7.88;;;5.25;;
72891;SDS011;61032;50.782;6.818;2023-04-19T04:57:21;9.10;;;5.32;;
72891;SDS011;61032;50.782;6.818;2023-04-19T04:58:24;9.93;;;5.82;;
72891;SDS011;61032;50.782;6.818;2023-04-19T04:59:24;9.02;;;4.93;;
72891;SDS011;61032;50.782;6.818;2023-04-19T05:00:25;10.32;;;5.03;;
72891;SDS011;61032;50.782;6.818;2023-04-19T05:01:26;9.77;;;5.65;;
72891;SDS011;61032;50.782;6.818;2023-04-19T05:02:26;9.02;;;5.13;;
72891;SDS011;61032;50.782;6.818;2023-04-19T05:03:26;7.40;;;4.97;;
72891;SDS011;61032;50.782;6.818;2023-04-19T05:04:27;9.40;;;5.32;;
72891;SDS011;61032;50.782;6.818;2023-04-19T05:05:28;7.20;;;4.60;;
72891;SDS011;61032;50.782;6.818;2023-04-19T05:06:28;7.78;;;5.05;;
72891;SDS011;61032;50.782;6.818;2023-04-19T05:07:29;8.52;;;4.78;;
72891;SDS011;61032;50.782;6.818;2023-04-19T05:08:29;8.38;;;5.05;;
72891;SDS011;61032;50.782;6.818;2023-04-19T05:09:30;7.45;;;5.22;;
72891;SDS011;61032;50.782;6.818;2023-04-19T05:10:31;8.25;;;4.60;;
72891;SDS011;61032;50.782;6.818;2023-04-19T05:11:32;7.53;;;4.85;;
72891;SDS011;61032;50.782;6.818;2023-04-19T05:12:32;6.93;;;4.57;;
72891;SDS011;61032;50.782;6.818;2023-04-19T05:13:33;6.93;;;4.50;;
72891;SDS011;61032;50.782;6.818;2023-04-19T05:14:33;8.23;;;4.75;;
72891;SDS011;61032;50.782;6.818;2023-04-19T05:15:34;9.32;;;5.07;;
72891;SDS011;61032;50.782;6.818;2023-04-19T05:16:34;7.05;;;4.50;;
72891;SDS011;61032;50.782;6.818;2023-04-19T05:17:35;9.30;;;5.07;;
72891;SDS011;61032;50.782;6.818;2023-04-19T05:18:35;7.55;;;4.80;;
72891;SDS011;61032;50.782;6.818;2023-04-19T05:19:36;8.13;;;4.65;;
72891;SDS011;61032;50.782;6.818;2023-04-19T05:20:37;6.70;;;4.22;;
72891;SDS011;61032;50.782;6.818;2023-04-19T05:21:38;6.72;;;4.85;;
72891;SDS011;61032;50.782;6.818;2023-04-19T05:22:38;9.80;;;5.20;;
72891;SDS011;61032;50.782;6.818;2023-04-19T05:23:38;8.00;;;4.60;;
72891;SDS011;61032;50.782;6.818;2023-04-19T05:24:39;7.85;;;4.85;;
72891;SDS011;61032;50.782;6.818;2023-04-19T05:25:40;8.65;;;4.50;;
72891;SDS011;61032;50.782;6.818;2023-04-19T05:26:40;8.15;;;5.05;;
72891;SDS011;61032;50.782;6.818;2023-04-19T05:27:41;7.45;;;5.10;;
72891;SDS011;61032;50.782;6.818;2023-04-19T05:28:42;6.93;;;4.78;;
72891;SDS011;61032;50.782;6.818;2023-04-19T05:29:43;7.95;;;4.72;;
72891;SDS011;61032;50.782;6.818;2023-04-19T05:30:44;7.20;;;4.75;;
72891;SDS011;61032;50.782;6.818;2023-04-19T05:31:44;8.02;;;4.88;;
72891;SDS011;61032;50.782;6.818;2023-04-19T05:32:45;8.20;;;4.68;;
72891;SDS011;61032;50.782;6.818;2023-04-19T05:33:46;8.98;;;4.35;;
72891;SDS011;61032;50.782;6.818;2023-04-19T05:34:46;7.72;;;4.55;;
72891;SDS011;61032;50.782;6.818;2023-04-19T05:35:47;8.05;;;4.63;;
72891;SDS011;61032;50.782;6.818;2023-04-19T05:36:47;10.85;;;5.30;;
72891;SDS011;61032;50.782;6.818;2023-04-19T05:37:47;8.88;;;4.90;;
72891;SDS011;61032;50.782;6.818;2023-04-19T05:38:48;7.20;;;4.30;;
72891;SDS011;61032;50.782;6.818;2023-04-19T05:39:48;8.18;;;4.65;;
72891;SDS011;61032;50.782;6.818;2023-04-19T05:40:49;7.45;;;4.68;;
72891;SDS011;61032;50.782;6.818;2023-04-19T05:41:49;7.38;;;4.50;;
72891;SDS011;61032;50.782;6.818;2023-04-19T05:42:50;6.57;;;4.63;;
72891;SDS011;61032;50.782;6.818;2023-04-19T05:43:50;6.28;;;4.32;;
72891;SDS011;61032;50.782;6.818;2023-04-19T05:44:51;6.35;;;4.50;;
72891;SDS011;61032;50.782;6.818;2023-04-19T05:45:52;7.97;;;4.65;;
72891;SDS011;61032;50.782;6.818;2023-04-19T05:46:52;7.70;;;4.55;;
72891;SDS011;61032;50.782;6.818;2023-04-19T05:47:53;6.07;;;4.35;;
72891;SDS011;61032;50.782;6.818;2023-04-19T05:48:53;10.50;;;5.22;;
72891;SDS011;61032;50.782;6.818;2023-04-19T05:49:57;7.82;;;4.68;;
72891;SDS011;61032;50.782;6.818;2023-04-19T05:50:57;7.90;;;5.22;;
72891;SDS011;61032;50.782;6.818;2023-04-19T05:51:58;6.47;;;4.38;;
72891;SDS011;61032;50.782;6.818;2023-04-19T05:52:59;9.77;;;5.28;;
72891;SDS011;61032;50.782;6.818;2023-04-19T05:54:00;7.47;;;4.70;;
72891;SDS011;61032;50.782;6.818;2023-04-19T05:55:00;7.47;;;5.00;;
72891;SDS011;61032;50.782;6.818;2023-04-19T05:56:00;9.20;;;5.68;;
72891;SDS011;61032;50.782;6.818;2023-04-19T05:57:01;7.57;;;4.57;;
72891;SDS011;61032;50.782;6.818;2023-04-19T05:58:02;9.20;;;5.43;;
72891;SDS011;61032;50.782;6.818;2023-04-19T05:59:03;13.60;;;5.70;;
72891;SDS011;61032;50.782;6.818;2023-04-19T06:00:04;9.50;;;5.88;;
72891;SDS011;61032;50.782;6.818;2023-04-19T06:01:05;8.40;;;5.32;;
72891;SDS011;61032;50.782;6.818;2023-04-19T06:02:06;8.82;;;5.53;;
72891;SDS011;61032;50.782;6.818;2023-04-19T06:03:07;11.30;;;6.15;;
72891;SDS011;61032;50.782;6.818;2023-04-19T06:04:07;8.00;;;5.53;;
72891;SDS011;61032;50.782;6.818;2023-04-19T06:05:08;9.48;;;5.88;;
72891;SDS011;61032;50.782;6.818;2023-04-19T06:06:08;8.35;;;5.75;;
72891;SDS011;61032;50.782;6.818;2023-04-19T06:07:09;11.02;;;5.63;;
72891;SDS011;61032;50.782;6.818;2023-04-19T06:08:09;10.70;;;5.85;;
72891;SDS011;61032;50.782;6.818;2023-04-19T06:09:10;7.43;;;5.22;;